createdAt,value
2022-12-03T00:24:37.510Z,28.10
2022-12-03T00:30:13.797Z,29.70
2022-12-03T00:32:40.322Z,28.08
2022-12-03T00:35:07.137Z,38.58
2022-12-03T00:37:35.306Z,31.52
2022-12-03T00:40:04.010Z,34.05
2022-12-03T00:42:30.509Z,29.67
2022-12-03T00:44:57.111Z,33.45
2022-12-03T00:47:23.701Z,41.05
2022-12-03T00:49:50.370Z,36.08
2022-12-03T00:52:16.938Z,38.72
2022-12-03T00:54:43.428Z,42.03
2022-12-03T00:57:12.824Z,42.40
2022-12-03T00:59:39.360Z,50.95
2022-12-03T01:02:05.955Z,44.42
2022-12-03T01:04:34.236Z,41.05
2022-12-03T01:07:01.022Z,42.03
2022-12-03T01:09:27.645Z,44.15
2022-12-03T01:11:54.234Z,38.33
2022-12-03T01:14:20.893Z,41.40
2022-12-03T01:16:48.155Z,39.67
2022-12-03T01:19:16.099Z,42.22
2022-12-03T01:21:49.031Z,36.35
2022-12-03T01:24:16.358Z,34.55
2022-12-03T01:26:43.022Z,40.80
2022-12-03T01:29:09.686Z,43.28
2022-12-03T01:31:54.761Z,38.50
2022-12-03T01:34:21.413Z,52.13
2022-12-03T01:36:48.017Z,48.90
2022-12-03T01:39:17.933Z,34.42
2022-12-03T01:41:45.208Z,45.38
2022-12-03T01:44:28.447Z,41.72
2022-12-03T01:46:57.161Z,41.05
2022-12-03T01:49:32.592Z,40.47
2022-12-03T01:52:00.222Z,37.08
2022-12-03T01:54:38.751Z,51.35
2022-12-03T01:57:16.055Z,43.42
2022-12-03T01:59:42.783Z,41.15
2022-12-03T02:02:22.689Z,31.50
2022-12-03T02:04:49.427Z,34.30
2022-12-03T02:07:29.330Z,32.22
2022-12-03T02:09:57.940Z,35.38
2022-12-03T02:12:34.411Z,34.47
2022-12-03T02:15:01.721Z,31.90
2022-12-03T02:17:28.634Z,37.35
2022-12-03T02:19:56.287Z,38.70
2022-12-03T02:22:55.283Z,34.63
2022-12-03T02:25:29.261Z,41.42
2022-12-03T02:27:56.408Z,37.60
2022-12-03T02:30:26.523Z,38.55
2022-12-03T02:32:54.628Z,38.50
2022-12-03T02:35:29.397Z,38.95
2022-12-03T02:38:22.370Z,27.92
2022-12-03T02:40:52.775Z,27.27
2022-12-03T02:43:20.624Z,43.65
2022-12-03T02:45:50.737Z,36.92
2022-12-03T02:48:25.420Z,37.40
2022-12-03T02:50:54.890Z,34.40
2022-12-03T02:53:26.554Z,36.65
2022-12-03T02:55:56.131Z,36.53
2022-12-03T02:58:24.173Z,35.80
2022-12-03T03:00:53.082Z,32.22
2022-12-03T03:03:21.059Z,35.30
2022-12-03T03:05:51.762Z,39.55
2022-12-03T03:08:18.955Z,35.30
2022-12-03T03:10:47.114Z,31.10
2022-12-03T03:13:15.757Z,35.65
2022-12-03T03:15:42.924Z,42.28
2022-12-03T03:18:11.732Z,37.85
2022-12-03T03:20:39.185Z,42.13
2022-12-03T03:23:17.926Z,36.08
2022-12-03T03:25:49.764Z,43.60
2022-12-03T03:28:16.924Z,41.35
2022-12-03T03:30:44.387Z,36.50
2022-12-03T03:33:13.335Z,34.00
2022-12-03T03:35:43.009Z,34.90
2022-12-03T03:38:10.629Z,38.58
2022-12-03T03:40:38.519Z,42.22
2022-12-03T03:43:06.684Z,41.17
2022-12-03T03:45:33.626Z,47.45
2022-12-03T03:48:00.969Z,43.75
2022-12-03T03:50:30.976Z,41.33
2022-12-03T03:53:08.354Z,42.38
2022-12-03T03:55:35.029Z,39.58
2022-12-03T03:58:01.692Z,33.60
2022-12-03T04:00:28.419Z,33.42
2022-12-03T04:02:57.349Z,34.55
2022-12-03T04:05:25.062Z,37.97
2022-12-03T04:07:52.046Z,37.00
2022-12-03T04:10:37.150Z,32.60
2022-12-03T04:13:04.793Z,32.90
2022-12-03T04:15:31.401Z,33.30
2022-12-03T04:18:16.630Z,34.78
2022-12-03T04:20:43.300Z,38.55
2022-12-03T04:23:10.043Z,33.05
2022-12-03T04:26:11.861Z,34.30
2022-12-03T04:28:50.305Z,27.80
2022-12-03T04:31:35.555Z,26.05
2022-12-03T04:34:20.877Z,29.17
2022-12-03T04:36:47.967Z,31.25
2022-12-03T04:39:14.525Z,28.33
2022-12-03T04:41:41.146Z,28.13
2022-12-03T04:44:33.750Z,28.65
2022-12-03T04:47:01.280Z,28.60
2022-12-03T04:49:27.872Z,25.75
2022-12-03T04:51:54.427Z,26.55
2022-12-03T04:54:23.696Z,27.60
2022-12-03T04:56:50.303Z,28.23
2022-12-03T04:59:16.931Z,29.98
2022-12-03T05:01:44.175Z,22.85
2022-12-03T05:04:11.502Z,28.63
2022-12-03T05:06:38.212Z,23.25
2022-12-03T05:09:04.842Z,24.33
2022-12-03T05:11:31.763Z,24.13
2022-12-03T05:13:58.456Z,19.42
2022-12-03T05:16:25.176Z,26.38
2022-12-03T05:18:51.796Z,24.95
2022-12-03T05:21:18.493Z,22.05
2022-12-03T05:23:45.157Z,23.17
2022-12-03T05:26:12.027Z,26.88
2022-12-03T05:28:38.570Z,24.75
2022-12-03T05:31:05.262Z,23.05
2022-12-03T05:33:32.197Z,24.45
2022-12-03T05:35:58.876Z,20.90
2022-12-03T05:38:25.513Z,21.00
2022-12-03T05:40:52.092Z,18.75
2022-12-03T05:43:18.737Z,22.17
2022-12-03T05:45:48.669Z,23.70
2022-12-03T05:48:16.530Z,17.10
2022-12-03T05:50:44.887Z,23.55
2022-12-03T05:55:39.014Z,22.25
2022-12-03T05:58:05.913Z,25.52
2022-12-03T06:00:42.334Z,21.17
2022-12-03T06:03:10.755Z,25.88
2022-12-03T06:05:37.552Z,21.85
2022-12-03T06:08:04.547Z,21.33
2022-12-03T06:10:31.332Z,28.00
2022-12-03T06:12:58.152Z,22.25
2022-12-03T06:15:24.706Z,20.30
2022-12-03T06:17:51.330Z,21.02
2022-12-03T06:20:19.710Z,24.80
2022-12-03T06:25:13.986Z,24.63
2022-12-03T06:27:40.582Z,20.10
2022-12-03T06:30:08.874Z,25.73
2022-12-03T06:32:35.867Z,26.92
2022-12-03T06:35:02.741Z,29.30
2022-12-03T06:37:29.355Z,26.60
2022-12-03T07:03:29.262Z,28.52
2022-12-03T07:05:55.750Z,28.25
2022-12-03T07:08:22.182Z,25.13
2022-12-03T07:10:48.654Z,30.63
2022-12-03T07:13:15.097Z,30.50
2022-12-03T07:15:41.646Z,26.67
2022-12-03T07:18:08.141Z,23.25
2022-12-03T07:20:34.585Z,20.35
2022-12-03T07:23:01.078Z,24.40
2022-12-03T07:25:27.695Z,24.50
2022-12-03T07:27:54.262Z,21.50
2022-12-03T07:30:21.394Z,21.52
2022-12-03T07:32:47.924Z,19.65
2022-12-03T07:35:14.461Z,21.48
2022-12-03T07:37:40.928Z,25.92
2022-12-03T07:40:08.049Z,26.95
2022-12-03T07:42:34.460Z,21.42
2022-12-03T07:45:00.893Z,20.35
2022-12-03T07:47:27.408Z,17.65
2022-12-03T07:49:53.866Z,17.42
2022-12-03T07:52:20.422Z,21.67
2022-12-03T07:54:46.885Z,23.80
2022-12-03T07:57:13.347Z,24.55
2022-12-03T07:59:39.833Z,26.50
2022-12-03T08:02:06.684Z,26.05
2022-12-03T08:04:33.192Z,27.20
2022-12-03T08:06:59.639Z,26.38
2022-12-03T08:09:26.534Z,27.30
2022-12-03T08:11:53.630Z,24.50
2022-12-03T08:14:20.657Z,24.45
2022-12-03T08:16:48.307Z,24.65
2022-12-03T08:19:17.115Z,24.88
2022-12-03T08:21:44.515Z,24.90
2022-12-03T08:24:15.316Z,24.70
2022-12-03T08:26:44.274Z,30.80
2022-12-03T08:29:12.763Z,27.10
2022-12-03T08:31:39.641Z,29.38
2022-12-03T08:34:18.674Z,29.08
2022-12-03T08:36:46.189Z,27.05
2022-12-03T08:39:37.704Z,29.58
2022-12-03T08:42:44.010Z,30.35
2022-12-03T08:45:40.052Z,26.98
2022-12-03T08:48:18.950Z,26.00
2022-12-03T08:50:45.948Z,25.73
2022-12-03T08:53:36.657Z,24.65
2022-12-03T08:56:20.837Z,25.60
2022-12-03T08:58:56.075Z,34.17
2022-12-03T09:01:31.742Z,24.67
2022-12-03T09:04:42.469Z,28.48
2022-12-03T09:07:09.014Z,28.15
2022-12-03T09:09:35.580Z,26.45
2022-12-03T09:23:45.122Z,26.55
2022-12-03T09:26:11.534Z,26.67
2022-12-03T09:28:38.056Z,28.55
2022-12-03T09:31:04.636Z,26.42
2022-12-03T09:33:32.457Z,22.08
2022-12-03T09:35:59.550Z,25.63
2022-12-03T09:38:26.589Z,22.75
2022-12-03T09:40:54.009Z,21.65
2022-12-03T09:43:21.772Z,28.75
2022-12-03T09:45:49.657Z,24.67
2022-12-03T09:48:20.712Z,25.92
2022-12-03T09:50:48.151Z,25.17
2022-12-03T09:53:19.280Z,23.73
2022-12-03T09:55:49.316Z,23.42
2022-12-03T09:58:18.953Z,21.52
2022-12-03T10:00:51.675Z,24.35
2022-12-03T10:03:26.531Z,22.83
2022-12-03T10:05:56.256Z,22.35
2022-12-03T10:08:26.088Z,20.17
2022-12-03T10:10:59.257Z,18.48
2022-12-03T10:13:29.911Z,20.38
2022-12-03T10:15:59.138Z,21.58
2022-12-03T10:18:36.947Z,18.70
2022-12-03T10:21:20.401Z,22.13
2022-12-03T10:23:50.795Z,20.83
2022-12-03T10:26:40.864Z,21.40
2022-12-03T10:29:14.954Z,20.15
2022-12-03T10:31:41.480Z,21.73
2022-12-03T10:34:09.573Z,17.73
2022-12-03T10:36:37.004Z,22.33
2022-12-03T10:39:15.008Z,21.30
2022-12-03T10:41:44.243Z,20.25
2022-12-03T10:44:30.464Z,19.42
2022-12-03T11:09:01.409Z,16.42
2022-12-03T11:11:31.499Z,16.80
2022-12-03T11:14:03.425Z,19.77
2022-12-03T11:16:39.650Z,20.20
2022-12-03T11:19:12.425Z,18.05
2022-12-03T11:22:06.828Z,18.02
2022-12-03T11:24:38.082Z,18.13
2022-12-03T11:27:04.521Z,18.85
2022-12-03T11:29:54.671Z,18.25
2022-12-03T11:32:42.565Z,19.58
2022-12-03T11:35:35.844Z,21.60
2022-12-03T11:38:37.294Z,16.92
2022-12-03T11:41:15.503Z,19.10
2022-12-03T11:43:57.158Z,20.50
2022-12-03T11:46:36.135Z,19.75
2022-12-03T11:49:23.105Z,16.63
2022-12-03T11:51:50.184Z,16.40
2022-12-03T11:54:18.904Z,20.73
2022-12-03T11:56:49.462Z,19.17
2022-12-03T11:59:17.206Z,19.27
2022-12-03T12:01:44.993Z,20.48
2022-12-03T12:04:47.023Z,22.85
2022-12-03T12:09:59.177Z,19.70
2022-12-03T12:12:30.207Z,16.58
2022-12-03T12:14:58.502Z,19.42
2022-12-03T12:20:23.619Z,17.27
2022-12-03T12:22:50.632Z,13.50
2022-12-03T12:25:40.295Z,13.73
2022-12-03T12:28:07.512Z,17.27
2022-12-03T12:30:34.801Z,16.42
2022-12-03T12:33:07.443Z,16.95
2022-12-03T12:35:33.939Z,16.88
2022-12-03T12:38:12.847Z,20.73
2022-12-03T12:40:42.483Z,15.60
2022-12-03T12:43:15.227Z,16.73
2022-12-03T12:45:44.670Z,20.63
2022-12-03T12:48:21.986Z,16.80
2022-12-03T12:50:52.173Z,14.68
2022-12-03T12:53:26.216Z,17.23
2022-12-03T12:56:11.365Z,16.40
2022-12-03T12:58:37.837Z,24.40
2022-12-03T13:01:07.704Z,16.65
2022-12-03T13:03:38.096Z,17.88
2022-12-03T13:06:05.328Z,16.95
2022-12-03T13:08:40.249Z,18.02
2022-12-03T13:11:27.539Z,21.98
2022-12-03T13:13:54.112Z,20.25
2022-12-03T13:16:30.509Z,18.00
2022-12-03T13:18:59.144Z,18.75
2022-12-03T13:21:33.654Z,19.13
2022-12-03T13:24:00.889Z,15.50
2022-12-03T13:26:39.736Z,16.52
2022-12-03T13:29:18.860Z,17.08
2022-12-03T13:31:58.047Z,17.88
2022-12-03T13:34:33.303Z,17.65
2022-12-03T13:37:01.638Z,16.65
2022-12-03T13:42:39.260Z,18.95
2022-12-03T13:45:15.050Z,17.55
2022-12-03T13:47:51.004Z,18.88
2022-12-03T13:50:40.347Z,17.70
2022-12-03T13:53:24.666Z,25.77
2022-12-03T13:56:11.917Z,20.55
2022-12-03T13:58:38.412Z,19.70
2022-12-03T14:01:04.998Z,20.23
2022-12-03T14:03:31.516Z,18.77
2022-12-03T14:05:57.980Z,23.55
2022-12-03T14:08:24.429Z,18.30
2022-12-03T14:10:55.567Z,19.13
2022-12-03T14:13:25.309Z,19.13
2022-12-03T14:15:51.777Z,19.83
2022-12-03T14:18:18.298Z,20.85
2022-12-03T14:20:44.741Z,22.08
2022-12-03T14:23:11.161Z,17.10
2022-12-03T14:25:37.621Z,20.92
2022-12-03T14:28:08.538Z,23.05
2022-12-03T14:30:35.889Z,18.05
2022-12-03T14:33:02.807Z,15.45
2022-12-03T14:35:29.318Z,20.42
2022-12-03T14:37:55.762Z,21.63
2022-12-03T14:40:22.592Z,22.15
2022-12-03T14:42:49.157Z,24.83
2022-12-03T14:45:15.727Z,24.85
2022-12-03T14:47:42.492Z,22.95
2022-12-03T14:50:14.064Z,21.92
2022-12-03T14:52:40.783Z,20.33
2022-12-03T14:55:15.717Z,23.10
2022-12-03T14:57:42.219Z,21.08
2022-12-03T15:00:09.397Z,18.13
2022-12-03T15:02:39.583Z,20.38
2022-12-03T15:05:11.766Z,20.77
2022-12-03T15:07:39.500Z,19.35
2022-12-03T15:10:07.934Z,21.75
2022-12-03T15:12:34.698Z,20.30
2022-12-03T15:15:01.179Z,18.65
2022-12-03T15:17:31.633Z,21.75
2022-12-03T15:19:58.539Z,21.85
2022-12-03T15:22:25.020Z,25.13
2022-12-03T15:24:51.522Z,18.98
2022-12-03T15:27:17.974Z,17.35
2022-12-03T15:29:44.468Z,22.95
2022-12-03T15:32:11.013Z,23.50
2022-12-03T15:34:37.442Z,20.33
2022-12-03T15:37:03.874Z,23.73
2022-12-03T15:39:30.380Z,19.52
2022-12-03T15:41:56.852Z,21.50
2022-12-03T15:44:23.355Z,19.80
2022-12-03T15:46:49.858Z,23.17
2022-12-03T15:49:16.366Z,21.15
2022-12-03T15:51:42.846Z,17.35
2022-12-03T15:54:09.362Z,19.90
2022-12-03T15:56:37.779Z,22.55
2022-12-03T15:59:04.844Z,24.83
2022-12-03T16:01:31.568Z,22.25
2022-12-03T16:04:01.247Z,20.50
2022-12-03T16:06:27.792Z,18.90
2022-12-03T16:08:54.360Z,18.83
2022-12-03T16:11:20.875Z,21.80
2022-12-03T16:13:47.424Z,20.20
2022-12-03T16:16:14.669Z,19.27
2022-12-03T16:18:41.294Z,21.75
2022-12-03T16:21:07.799Z,17.83
2022-12-03T16:23:34.298Z,20.30
2022-12-03T16:26:00.775Z,20.05
2022-12-03T16:28:27.279Z,20.35
2022-12-03T16:30:53.794Z,21.08
2022-12-03T16:33:27.015Z,19.80
2022-12-03T16:35:54.127Z,21.50
2022-12-03T16:38:20.614Z,21.90
2022-12-03T16:40:47.223Z,18.70
2022-12-03T16:43:13.692Z,20.73
2022-12-03T16:45:46.073Z,20.40
2022-12-03T16:48:12.751Z,20.23
2022-12-03T16:50:40.325Z,20.17
2022-12-03T16:53:06.887Z,21.48
2022-12-03T16:55:47.003Z,19.75
2022-12-03T16:58:13.591Z,20.88
2022-12-03T17:00:40.227Z,26.83
2022-12-03T17:03:06.834Z,21.08
2022-12-03T17:05:33.604Z,18.45
2022-12-03T17:08:07.521Z,21.60
2022-12-03T17:10:36.343Z,24.67
2022-12-03T17:13:10.851Z,24.15
2022-12-03T17:15:37.987Z,22.60
2022-12-03T17:18:06.545Z,25.40
2022-12-03T17:20:34.735Z,17.42
2022-12-03T17:23:01.506Z,19.05
2022-12-03T17:25:28.285Z,17.90
2022-12-03T17:27:54.955Z,17.27
2022-12-03T17:30:21.499Z,14.82
2022-12-03T17:32:53.461Z,17.05
2022-12-03T17:35:20.021Z,16.35
2022-12-03T17:37:46.533Z,14.73
2022-12-03T17:40:15.652Z,17.30
2022-12-03T17:42:44.110Z,20.90
2022-12-03T17:47:37.320Z,34.13
2022-12-03T17:50:04.025Z,17.95
2022-12-03T17:52:30.578Z,16.13
2022-12-03T17:55:19.821Z,15.95
2022-12-03T17:57:43.696Z,18.45
2022-12-03T18:00:10.788Z,20.70
2022-12-03T18:02:37.328Z,20.77
2022-12-03T18:05:04.053Z,16.02
2022-12-03T18:07:30.762Z,19.00
2022-12-03T18:09:57.542Z,28.60
2022-12-03T18:12:24.249Z,19.67
2022-12-03T18:14:50.825Z,21.02
2022-12-03T18:17:17.392Z,18.52
2022-12-03T18:19:43.922Z,17.77
2022-12-03T18:22:10.543Z,18.20
2022-12-03T18:24:37.100Z,16.02
2022-12-03T18:27:03.658Z,18.48
2022-12-03T18:29:30.203Z,19.45
2022-12-03T18:31:56.737Z,21.25
2022-12-03T18:34:23.264Z,19.05
2022-12-03T18:36:50.013Z,19.25
2022-12-03T18:39:49.113Z,17.63
2022-12-03T18:42:18.336Z,17.95
2022-12-03T18:44:49.677Z,18.63
2022-12-03T18:47:21.517Z,19.35
2022-12-03T18:49:48.274Z,20.08
2022-12-03T18:52:18.666Z,19.40
2022-12-03T18:54:45.620Z,21.25
2022-12-03T18:57:12.170Z,15.07
2022-12-03T18:59:39.179Z,19.42
2022-12-03T19:02:07.229Z,22.08
2022-12-03T19:04:34.111Z,19.35
2022-12-03T19:07:00.707Z,19.80
2022-12-03T19:09:27.208Z,20.42
2022-12-03T19:11:53.771Z,20.30
2022-12-03T19:14:20.312Z,19.23
2022-12-03T19:16:50.139Z,20.27
2022-12-03T19:19:17.941Z,22.23
2022-12-03T19:21:44.667Z,21.63
2022-12-03T19:24:26.766Z,23.30
2022-12-03T19:26:55.424Z,23.05
2022-12-03T19:29:23.291Z,22.08
2022-12-03T19:31:52.656Z,25.77
2022-12-03T19:34:19.329Z,30.05
2022-12-03T19:36:46.278Z,25.35
2022-12-03T19:39:14.344Z,25.33
2022-12-03T19:41:52.200Z,21.05
2022-12-03T19:44:19.605Z,27.85
2022-12-03T19:46:50.875Z,20.88
2022-12-03T19:49:21.043Z,21.65
2022-12-03T19:51:47.970Z,28.58
2022-12-03T19:54:14.698Z,23.50
2022-12-03T19:56:44.855Z,25.10
2022-12-03T19:59:14.054Z,25.85
2022-12-03T20:01:40.907Z,26.70
2022-12-03T20:04:07.945Z,26.08
2022-12-03T20:06:39.274Z,24.10
2022-12-03T20:09:09.371Z,27.58
2022-12-03T20:11:48.200Z,23.08
2022-12-03T20:14:16.453Z,24.30
2022-12-03T20:16:47.022Z,24.15
2022-12-03T20:19:15.533Z,27.27
2022-12-03T20:21:48.113Z,26.52
2022-12-03T20:24:17.488Z,24.77
2022-12-03T20:26:48.792Z,31.63
2022-12-03T20:29:15.374Z,26.95
2022-12-03T20:31:44.660Z,25.65
2022-12-03T20:34:11.605Z,22.30
2022-12-03T20:36:40.771Z,27.23
2022-12-03T20:39:08.304Z,30.40
2022-12-03T20:41:39.006Z,28.38
2022-12-03T20:44:09.705Z,27.38
2022-12-03T20:46:36.541Z,30.25
2022-12-03T20:49:03.736Z,27.90
2022-12-03T20:51:33.883Z,29.67
2022-12-03T20:54:03.312Z,30.20
2022-12-03T20:56:36.309Z,25.15
2022-12-03T20:59:08.190Z,23.98
2022-12-03T21:01:36.141Z,25.05
2022-12-03T21:04:04.393Z,26.30
2022-12-03T21:06:31.271Z,23.70
2022-12-03T21:09:01.471Z,22.92
2022-12-03T21:11:31.008Z,27.77
2022-12-03T21:13:58.901Z,24.17
2022-12-03T21:16:59.081Z,25.48
2022-12-03T21:19:17.856Z,21.92
2022-12-03T21:21:44.482Z,26.67
2022-12-03T21:24:11.846Z,23.27
2022-12-03T21:26:38.431Z,21.10
2022-12-03T21:29:04.980Z,22.70
2022-12-03T21:31:32.461Z,27.48
2022-12-03T21:33:59.396Z,25.20
2022-12-03T21:36:26.325Z,23.35
2022-12-03T21:38:55.687Z,20.55
2022-12-03T21:41:22.340Z,22.65
2022-12-03T21:43:52.480Z,23.48
2022-12-03T21:47:09.562Z,24.98
2022-12-03T21:49:05.710Z,23.00
2022-12-03T21:51:32.355Z,23.33
2022-12-03T21:54:04.086Z,22.38
2022-12-03T21:56:33.933Z,19.42
2022-12-03T21:59:00.552Z,24.73
2022-12-03T22:01:27.350Z,25.65
2022-12-03T22:03:56.273Z,26.73
2022-12-03T22:06:23.050Z,23.10
2022-12-03T22:08:50.234Z,20.58
2022-12-03T22:11:23.096Z,24.13
2022-12-03T22:13:50.357Z,21.25
2022-12-03T22:16:21.809Z,20.60
2022-12-03T22:18:49.511Z,16.27
2022-12-03T22:21:19.501Z,23.08
2022-12-03T22:23:46.530Z,18.42
2022-12-03T22:26:16.800Z,19.05
2022-12-03T22:28:44.971Z,23.73
2022-12-03T22:31:15.087Z,21.77
2022-12-03T22:33:42.446Z,24.92
2022-12-03T22:36:19.729Z,20.95
2022-12-03T22:38:47.455Z,23.92
2022-12-03T22:41:14.449Z,22.40
2022-12-03T22:43:43.279Z,23.75
2022-12-03T22:46:12.589Z,21.30
2022-12-03T22:48:40.502Z,26.02
2022-12-03T22:51:13.665Z,22.23
2022-12-03T22:53:40.787Z,23.92
2022-12-03T22:56:07.483Z,28.25
2022-12-03T22:58:37.742Z,23.63
2022-12-03T23:01:04.781Z,28.17
2022-12-03T23:03:31.669Z,27.25
2022-12-03T23:05:59.612Z,27.75
2022-12-03T23:08:26.195Z,23.50
2022-12-03T23:10:53.280Z,27.35
2022-12-03T23:13:23.144Z,25.85
2022-12-03T23:15:52.619Z,24.88
2022-12-03T23:18:22.538Z,25.85
2022-12-03T23:20:52.381Z,26.48
2022-12-03T23:23:28.662Z,25.77
2022-12-03T23:26:09.207Z,23.45
2022-12-03T23:28:41.626Z,26.35
2022-12-03T23:31:21.567Z,26.48
2022-12-03T23:33:48.613Z,26.10
2022-12-03T23:36:19.042Z,25.38
2022-12-03T23:38:45.700Z,24.05
2022-12-03T23:41:15.006Z,25.42
2022-12-03T23:43:42.110Z,26.98
2022-12-03T23:46:12.062Z,25.67
2022-12-03T23:48:38.881Z,26.40
2022-12-03T23:51:11.175Z,22.65
2022-12-03T23:53:38.461Z,28.17
2022-12-03T23:56:11.490Z,30.23
2022-12-03T23:58:38.753Z,26.85
